地図

経路データ

SID SEASON NUMBER BASIN SUBBASIN NAME ISO_TIME NATURE LAT LON WMO_WIND WMO_PRES WMO_AGENCY TRACK_TYPE DIST2LAND LANDFALL IFLAG USA_AGENCY USA_ATCF_ID USA_LAT USA_LON USA_RECORD USA_STATUS USA_WIND USA_PRES USA_SSHS USA_R34_NE USA_R34_SE USA_R34_SW USA_R34_NW USA_R50_NE USA_R50_SE USA_R50_SW USA_R50_NW USA_R64_NE USA_R64_SE USA_R64_SW USA_R64_NW USA_POCI USA_ROCI USA_RMW USA_EYE TOKYO_LAT TOKYO_LON TOKYO_GRADE TOKYO_WIND TOKYO_PRES TOKYO_R50_DIR TOKYO_R50_LONG TOKYO_R50_SHORT TOKYO_R30_DIR TOKYO_R30_LONG TOKYO_R30_SHORT TOKYO_LAND CMA_LAT CMA_LON CMA_CAT CMA_WIND CMA_PRES HKO_LAT HKO_LON HKO_CAT HKO_WIND HKO_PRES NEWDELHI_LAT NEWDELHI_LON NEWDELHI_GRADE NEWDELHI_WIND NEWDELHI_PRES NEWDELHI_CI NEWDELHI_DP NEWDELHI_POCI REUNION_LAT REUNION_LON REUNION_TYPE REUNION_WIND REUNION_PRES REUNION_TNUM REUNION_CI REUNION_RMW REUNION_R34_NE REUNION_R34_SE REUNION_R34_SW REUNION_R34_NW REUNION_R50_NE REUNION_R50_SE REUNION_R50_SW REUNION_R50_NW REUNION_R64_NE REUNION_R64_SE REUNION_R64_SW REUNION_R64_NW BOM_LAT BOM_LON BOM_TYPE BOM_WIND BOM_PRES BOM_TNUM BOM_CI BOM_RMW BOM_R34_NE BOM_R34_SE BOM_R34_SW BOM_R34_NW BOM_R50_NE BOM_R50_SE BOM_R50_SW BOM_R50_NW BOM_R64_NE BOM_R64_SE BOM_R64_SW BOM_R64_NW BOM_ROCI BOM_POCI BOM_EYE BOM_POS_METHOD BOM_PRES_METHOD NADI_LAT NADI_LON NADI_CAT NADI_WIND NADI_PRES WELLINGTON_LAT WELLINGTON_LON WELLINGTON_WIND WELLINGTON_PRES DS824_LAT DS824_LON DS824_STAGE DS824_WIND DS824_PRES TD9636_LAT TD9636_LON TD9636_STAGE TD9636_WIND TD9636_PRES TD9635_LAT TD9635_LON TD9635_WIND TD9635_PRES TD9635_ROCI NEUMANN_LAT NEUMANN_LON NEUMANN_CLASS NEUMANN_WIND NEUMANN_PRES MLC_LAT MLC_LON MLC_CLASS MLC_WIND MLC_PRES USA_GUST BOM_GUST BOM_GUST_PER REUNION_GUST REUNION_GUST_PER USA_SEAHGT USA_SEARAD_NE USA_SEARAD_SE USA_SEARAD_SW USA_SEARAD_NW STORM_SPEED STORM_DIR
1937320N08136 1937 62 WP MM NOT_NAMED 1937-11-16 10:00:00 NR 8.30000 135.500 main 983 961 __________O___ -1 8.30000 135.500 7 7 283
1937320N08136 1937 62 WP MM NOT_NAMED 1937-11-16 12:00:00 NR 8.35554 135.264 main 961 917 __________P___ -1 8.35554 135.264 7 8 283
1937320N08136 1937 62 WP MM NOT_NAMED 1937-11-16 15:00:00 NR 8.44296 134.880 main 917 864 __________P___ -1 8.44296 134.880 7 9 283
1937320N08136 1937 62 WP MM NOT_NAMED 1937-11-16 18:00:00 NR 8.54119 134.418 main 864 800 __________P___ -1 8.54119 134.418 7 11 282
1937320N08136 1937 62 WP MM NOT_NAMED 1937-11-16 21:00:00 NR 8.65664 133.832 main 800 779 __________P___ -1 8.65664 133.832 7 12 281
1937320N08136 1937 62 WP MM NOT_NAMED 1937-11-16 22:00:00 NR 8.70000 133.600 main 779 726 __________O___ -1 8.70000 133.600 7 15 281
1937320N08136 1937 62 WP MM NOT_NAMED 1937-11-17 00:00:00 NR 8.79485 133.078 main 726 631 __________P___ -1 8.79485 133.078 7 17 280
1937320N08136 1937 62 WP MM NOT_NAMED 1937-11-17 03:00:00 NR 8.95561 132.182 main 633 530 __________P___ -1 8.95561 132.182 7 19 280
1937320N08136 1937 62 WP MM NOT_NAMED 1937-11-17 06:00:00 NR 9.13546 131.207 main 530 432 __________P___ -1 9.13546 131.207 7 20 281
1937320N08136 1937 62 WP MM NOT_NAMED 1937-11-17 09:00:00 NR 9.33147 130.220 main 432 412 __________P___ -1 9.33147 130.220 7 20 282
1937320N08136 1937 62 WP MM NOT_NAMED 1937-11-17 10:00:00 NR 9.40000 129.900 main 401 338 __________O___ -1 9.40000 129.900 3 18 282
1937320N08136 1937 62 WP MM NOT_NAMED 1937-11-17 12:00:00 NR 9.53019 129.308 main 338 247 __________P___ -1 9.53019 129.308 3 18 283
1937320N08136 1937 62 WP MM NOT_NAMED 1937-11-17 15:00:00 NR 9.73837 128.439 main 247 177 __________P___ -1 9.73837 128.439 3 17 284
1937320N08136 1937 62 WP MM NOT_NAMED 1937-11-17 18:00:00 NR 9.96471 127.593 main 177 117 __________P___ -1 9.96471 127.593 3 17 286
1937320N08136 1937 62 WP MM NOT_NAMED 1937-11-17 21:00:00 NR 10.2123 126.769 main 117 105 __________P___ -1 10.2123 126.769 3 17 287
1937320N08136 1937 62 WP MM NOT_NAMED 1937-11-17 22:00:00 NR 10.3000 126.500 main 105 60 __________O___ -1 10.3000 126.500 4 17 289
1937320N08136 1937 62 WP MM NOT_NAMED 1937-11-18 00:00:00 NR 10.4900 125.971 main 60 15 __________P___ -1 10.4900 125.971 4 17 291
1937320N08136 1937 62 WP MM NOT_NAMED 1937-11-18 03:00:00 NR 10.7946 125.198 main 21 0 __________P___ -1 10.7946 125.198 4 16 292
1937320N08136 1937 62 WP MM NOT_NAMED 1937-11-18 06:00:00 NR 11.1062 124.433 main 0 0 __________P___ -1 11.1062 124.433 4 16 292
1937320N08136 1937 62 WP MM NOT_NAMED 1937-11-18 09:00:00 NR 11.4060 123.661 main 31 32 __________P___ -1 11.4060 123.661 4 16 291
1937320N08136 1937 62 WP MM NOT_NAMED 1937-11-18 10:00:00 NR 11.5000 123.400 main 32 11 __________O___ -1 11.5000 123.400 4 18 287
1937320N08136 1937 62 WP MM NOT_NAMED 1937-11-18 12:00:00 NR 11.6651 122.804 main 22 0 __________P___ -1 11.6651 122.804 4 18 285
1937320N08136 1937 62 WP MM NOT_NAMED 1937-11-18 15:00:00 NR 11.8937 121.896 main 15 11 __________P___ -1 11.8937 121.896 4 18 284
1937320N08136 1937 62 WP MM NOT_NAMED 1937-11-18 18:00:00 NR 12.1097 121.037 main 15 15 __________P___ -1 12.1097 121.037 4 16 286
1937320N08136 1937 62 WP MM NOT_NAMED 1937-11-18 21:00:00 NR 12.3257 120.304 main 70 70 __________P___ -1 12.3257 120.304 4 14 288
1937320N08136 1937 62 WP MM NOT_NAMED 1937-11-18 22:00:00 NR 12.4000 120.100 main 83 83 __________O___ -1 12.4000 120.100 4 11 294
1937320N08136 1937 62 WP MM NOT_NAMED 1937-11-19 00:00:00 NR 12.5519 119.783 main 101 101 __________P___ -1 12.5519 119.783 4 9 301
1937320N08136 1937 62 WP MM NOT_NAMED 1937-11-19 03:00:00 NR 12.7870 119.446 main 118 112 __________P___ -1 12.7870 119.446 4 7 312
1937320N08136 1937 62 WP MM NOT_NAMED 1937-11-19 06:00:00 NR 13.0362 119.223 main 127 123 __________P___ -1 13.0362 119.223 4 6 324
1937320N08136 1937 62 WP MM NOT_NAMED 1937-11-19 09:00:00 NR 13.3050 119.054 main 130 140 __________P___ -1 13.3050 119.054 4 6 329
1937320N08136 1937 62 WP MM NOT_NAMED 1937-11-19 10:00:00 NR 13.4000 119.000 main 140 140 __________O___ -1 13.4000 119.000 4 7 326
1937320N08136 1937 62 WP MM NOT_NAMED 1937-11-19 12:00:00 NR 13.6073 118.844 main 163 163 __________P___ -1 13.6073 118.844 4 8 326
1937320N08136 1937 62 WP MM NOT_NAMED 1937-11-19 15:00:00 NR 13.9375 118.630 main 190 179 __________P___ -1 13.9375 118.630 4 8 329
1937320N08136 1937 62 WP MM NOT_NAMED 1937-11-19 18:00:00 NR 14.2740 118.435 main 191 188 __________P___ -1 14.2740 118.435 4 8 331
1937320N08136 1937 62 WP MM NOT_NAMED 1937-11-19 21:00:00 NR 14.5980 118.256 main 193 198 __________P___ -1 14.5980 118.256 4 7 332
1937320N08136 1937 62 WP MM NOT_NAMED 1937-11-19 22:00:00 NR 14.7000 118.200 main 198 194 __________O___ -1 14.7000 118.200 4 7 329
1937320N08136 1937 62 WP MM NOT_NAMED 1937-11-20 00:00:00 NR 14.8785 118.078 main 201 201 __________P___ -1 14.8785 118.078 4 6 326
1937320N08136 1937 62 WP MM NOT_NAMED 1937-11-20 03:00:00 NR 15.1273 117.907 main 217 212 __________P___ -1 15.1273 117.907 4 6 328
1937320N08136 1937 62 WP MM NOT_NAMED 1937-11-20 06:00:00 NR 15.3671 117.757 main 214 218 __________P___ -1 15.3671 117.757 4 6 332
1937320N08136 1937 62 WP MM NOT_NAMED 1937-11-20 09:00:00 NR 15.6137 117.634 main 229 227 __________P___ -1 15.6137 117.634 4 6 335
1937320N08136 1937 62 WP MM NOT_NAMED 1937-11-20 10:00:00 NR 15.7000 117.600 main 227 224 __________O___ -1 15.7000 117.600 4 6 343
1937320N08136 1937 62 WP MM NOT_NAMED 1937-11-20 12:00:00 NR 15.9043 117.539 main 235 235 __________P___ -1 15.9043 117.539 4 7 347
1937320N08136 1937 62 WP MM NOT_NAMED 1937-11-20 15:00:00 NR 16.2237 117.471 main 236 236 __________P___ -1 16.2237 117.471 4 6 351
1937320N08136 1937 62 WP MM NOT_NAMED 1937-11-20 18:00:00 NR 16.5365 117.429 main 251 254 __________P___ -1 16.5365 117.429 4 6 354
1937320N08136 1937 62 WP MM NOT_NAMED 1937-11-20 21:00:00 NR 16.8176 117.405 main 261 261 __________P___ -1 16.8176 117.405 4 6 0
1937320N08136 1937 62 WP MM NOT_NAMED 1937-11-20 22:00:00 NR 16.9000 117.400 main 264 264 __________O___ -1 16.9000 117.400 4 4 353
1937320N08136 1937 62 WP MM NOT_NAMED 1937-11-21 00:00:00 NR 17.0290 117.391 main 267 267 __________P___ -1 17.0290 117.391 4 3 356
1937320N08136 1937 62 WP MM NOT_NAMED 1937-11-21 03:00:00 NR 17.1845 117.391 main 274 274 __________P___ -1 17.1845 117.391 4 3 2
1937320N08136 1937 62 WP MM NOT_NAMED 1937-11-21 06:00:00 NR 17.3168 117.397 main 278 278 __________P___ -1 17.3168 117.397 4 3 0
1937320N08136 1937 62 WP MM NOT_NAMED 1937-11-21 09:00:00 NR 17.4507 117.401 main 288 288 __________P___ -1 17.4507 117.401 4 3 0
1937320N08136 1937 62 WP MM NOT_NAMED 1937-11-21 10:00:00 NR 17.5000 117.400 main 288 288 __________O___ -1 17.5000 117.400 4 3 349
1937320N08136 1937 62 WP MM NOT_NAMED 1937-11-21 12:00:00 NR 17.6061 117.358 main 293 293 __________P___ -1 17.6061 117.358 4 4 340
1937320N08136 1937 62 WP MM NOT_NAMED 1937-11-21 15:00:00 NR 17.7775 117.288 main 314 314 __________P___ -1 17.7775 117.288 4 4 344
1937320N08136 1937 62 WP MM NOT_NAMED 1937-11-21 18:00:00 NR 17.9748 117.245 main 331 322 __________P___ -1 17.9748 117.245 4 4 358
1937320N08136 1937 62 WP MM NOT_NAMED 1937-11-21 21:00:00 NR 18.2107 117.270 main 324 324 __________P___ -1 18.2107 117.270 4 5 11
1937320N08136 1937 62 WP MM NOT_NAMED 1937-11-21 22:00:00 NR 18.3000 117.300 main 326 319 __________O___ -1 18.3000 117.300 4 7 23
1937320N08136 1937 62 WP MM NOT_NAMED 1937-11-22 00:00:00 NR 18.5149 117.409 main 322 315 __________P___ -1 18.5149 117.409 4 8 30
1937320N08136 1937 62 WP MM NOT_NAMED 1937-11-22 03:00:00 NR 18.8754 117.648 main 318 287 __________P___ -1 18.8754 117.648 4 9 35
1937320N08136 1937 62 WP MM NOT_NAMED 1937-11-22 06:00:00 NR 19.2483 117.951 main 287 276 __________P___ -1 19.2483 117.951 4 9 40
1937320N08136 1937 62 WP MM NOT_NAMED 1937-11-22 09:00:00 NR 19.5961 118.287 main 276 273 __________P___ -1 19.5961 118.287 4 9 43
1937320N08136 1937 62 WP MM NOT_NAMED 1937-11-22 10:00:00 NR 19.7000 118.400 main 273 268 __________O___ -1 19.7000 118.400 4 8 44
1937320N08136 1937 62 WP MM NOT_NAMED 1937-11-22 12:00:00 NR 19.8642 118.567 main 268 260 __________P___ -1 19.8642 118.567 4 7 47
1937320N08136 1937 62 WP MM NOT_NAMED 1937-11-22 15:00:00 NR 20.0728 118.828 main 268 244 __________P___ -1 20.0728 118.828 4 7 54
1937320N08136 1937 62 WP MM NOT_NAMED 1937-11-22 18:00:00 NR 20.2562 119.139 main 244 208 __________P___ -1 20.2562 119.139 4 8 61
1937320N08136 1937 62 WP MM NOT_NAMED 1937-11-22 21:00:00 NR 20.4367 119.539 main 208 187 __________P___ -1 20.4367 119.539 4 9 65
1937320N08136 1937 62 WP MM NOT_NAMED 1937-11-22 22:00:00 NR 20.5000 119.700 main 187 147 __________O___ -1 20.5000 119.700 4 11 67
1937320N08136 1937 62 WP MM NOT_NAMED 1937-11-23 00:00:00 NR 20.6531 120.091 main 147 111 __________P___ -1 20.6531 120.091 4 13 69
1937320N08136 1937 62 WP MM NOT_NAMED 1937-11-23 03:00:00 NR 20.8886 120.773 main 111 98 __________P___ -1 20.8886 120.773 4 14 71
1937320N08136 1937 62 WP MM NOT_NAMED 1937-11-23 06:00:00 NR 21.1198 121.516 main 108 106 __________P___ -1 21.1198 121.516 4 15 72
1937320N08136 1937 62 WP MM NOT_NAMED 1937-11-23 09:00:00 NR 21.3342 122.261 main 159 155 __________P___ -1 21.3342 122.261 4 14 73
1937320N08136 1937 62 WP MM NOT_NAMED 1937-11-23 10:00:00 NR 21.4000 122.500 main 174 174 __________O___ -1 21.4000 122.500 7 13 74
1937320N08136 1937 62 WP MM NOT_NAMED 1937-11-23 12:00:00 NR 21.5216 122.953 main 221 221 __________P___ -1 21.5216 122.953 7 13 74
1937320N08136 1937 62 WP MM NOT_NAMED 1937-11-23 15:00:00 NR 21.6829 123.580 main 274 274 __________P___ -1 21.6829 123.580 7 12 75
1937320N08136 1937 62 WP MM NOT_NAMED 1937-11-23 18:00:00 NR 21.8257 124.161 main 322 322 __________P___ -1 21.8257 124.161 7 11 75
1937320N08136 1937 62 WP MM NOT_NAMED 1937-11-23 21:00:00 NR 21.9574 124.717 main 360 360 __________P___ -1 21.9574 124.717 7 11 76
1937320N08136 1937 62 WP MM NOT_NAMED 1937-11-23 22:00:00 NR 22.0000 124.900 main 379 __________O___ -1 22.0000 124.900 7 11 76

デジタル台風データ・検索

IBTrACS Databaseについて

本データベースは、米国NOAAが公開する1842年以降の世界の熱帯低気圧のベストトラックデータアーカイブInternational Best Track Archive for Climate Stewardship (IBTrACS)を、ウェブで閲覧しやすい形式に変換したものです。

最終更新日:2021-11-26